Time;durP1;ratioP1;P1;durP2;ratioP2;P2;SDS_P1;SDS_P2;PMS_P1;PMS_P2;Temp;Humidity;BMP_temperature;BMP_pressure;BME280_temperature;BME280_humidity;BME280_pressure;Samples;Min_cycle;Max_cycle;Signal;HPM_P1;HPM_P2
2021/04/18 00:01:45;;;;;;;18.38;6.95;;;;;;;9.14;61.48;102589.50;5040260;28;20053;-84
2021/04/18 00:04:12;;;;;;;18.48;6.05;;;;;;;9.14;61.70;102593.91;5042621;28;20063;-83
2021/04/18 00:06:39;;;;;;;20.45;6.53;;;;;;;9.18;61.85;102585.13;5045533;28;20022;-83
2021/04/18 00:09:07;;;;;;;18.33;6.82;;;;;;;9.13;62.91;102574.50;5043065;28;20480;-84
2021/04/18 00:11:34;;;;;;;13.88;6.78;;;;;;;9.16;61.93;102586.88;5041739;28;20026;-83
2021/04/18 00:14:00;;;;;;;17.52;7.00;;;;;;;9.04;62.67;102577.03;5038791;28;20059;-84
2021/04/18 00:16:27;;;;;;;17.38;6.68;;;;;;;9.09;62.29;102577.09;5044041;28;20083;-84
2021/04/18 00:18:54;;;;;;;14.23;6.25;;;;;;;9.09;62.50;102575.31;5044539;28;20061;-84
2021/04/18 00:21:20;;;;;;;23.77;6.72;;;;;;;9.10;62.03;102571.81;5050645;28;20496;-83
2021/04/18 00:23:47;;;;;;;16.77;6.10;;;;;;;9.06;62.03;102572.66;5051243;28;20071;-84
2021/04/18 00:26:13;;;;;;;17.83;7.30;;;;;;;9.09;62.22;102564.75;5047119;28;20018;-84
2021/04/18 00:28:40;;;;;;;22.17;6.45;;;;;;;8.97;63.20;102562.84;5049221;28;20068;-84
2021/04/18 00:31:07;;;;;;;21.42;6.75;;;;;;;9.04;62.38;102562.03;5048213;28;20029;-84
2021/04/18 00:33:33;;;;;;;19.75;6.88;;;;;;;9.07;62.39;102562.09;5047024;28;20430;-84
2021/04/18 00:36:00;;;;;;;19.27;5.82;;;;;;;9.07;61.75;102559.44;5050606;28;20502;-84
2021/04/18 00:38:27;;;;;;;20.98;6.60;;;;;;;9.00;62.36;102549.66;5050340;28;20025;-82
2021/04/18 00:40:53;;;;;;;19.65;6.70;;;;;;;9.03;62.03;102552.34;5047074;28;20432;-83
2021/04/18 00:43:20;;;;;;;15.70;6.47;;;;;;;8.99;62.75;102546.97;5053931;28;20033;-83
2021/04/18 00:45:47;;;;;;;21.25;8.23;;;;;;;9.01;62.69;102540.84;5053541;28;20032;-81
2021/04/18 00:48:21;;;;;;;18.08;7.10;;;;;;;9.07;62.67;102545.31;5050011;28;20031;-84
2021/04/18 00:50:54;;;;;;;16.52;7.05;;;;;;;9.00;63.04;102539.06;5050672;28;20029;-83
2021/04/18 00:53:36;;;;;;;17.58;5.85;;;;;;;9.02;62.39;102536.44;5044824;28;20048;-83
2021/04/18 00:56:04;;;;;;;18.75;7.03;;;;;;;8.98;62.68;102540.78;5045413;28;20427;-83
2021/04/18 00:58:32;;;;;;;23.77;7.07;;;;;;;8.98;63.03;102535.50;5046303;28;20118;-83
2021/04/18 01:00:59;;;;;;;29.75;8.52;;;;;;;8.92;63.91;102534.53;5048432;28;20070;-83
2021/04/18 01:03:25;;;;;;;16.80;7.07;;;;;;;8.94;62.45;102533.69;5046139;28;20056;-84
2021/04/18 01:05:52;;;;;;;16.92;6.97;;;;;;;8.93;62.94;102526.63;5046729;28;20022;-84
2021/04/18 01:08:19;;;;;;;19.98;6.88;;;;;;;8.88;62.84;102529.22;5049314;28;20025;-84
2021/04/18 01:10:45;;;;;;;25.33;9.75;;;;;;;8.89;62.97;102524.81;5051508;28;20124;-84
2021/04/18 01:13:12;;;;;;;21.92;7.95;;;;;;;8.88;63.30;102530.97;5047519;28;20044;-83
2021/04/18 01:15:39;;;;;;;21.95;7.68;;;;;;;8.90;63.51;102537.16;5043496;28;20025;-83
2021/04/18 01:18:05;;;;;;;20.25;7.53;;;;;;;8.93;63.88;102526.63;5048621;28;20455;-83
2021/04/18 01:20:32;;;;;;;16.48;7.57;;;;;;;8.94;62.94;102533.69;5050120;28;20064;-81
2021/04/18 01:22:59;;;;;;;17.65;8.20;;;;;;;8.93;63.24;102537.19;5046299;28;20033;-84
2021/04/18 01:25:26;;;;;;;16.17;7.10;;;;;;;8.87;62.89;102529.19;5026993;28;20055;-84
2021/04/18 01:27:53;;;;;;;19.08;7.20;;;;;;;8.91;62.52;102525.75;5045504;28;20025;-82
2021/04/18 01:30:23;;;;;;;22.45;8.18;;;;;;;8.90;62.84;102527.47;5047585;28;20048;-83
2021/04/18 01:32:52;;;;;;;20.70;7.72;;;;;;;8.90;62.75;102526.59;5052126;28;20079;-83
2021/04/18 01:35:20;;;;;;;22.60;7.38;;;;;;;8.89;62.92;102533.63;5029254;28;20022;-83
2021/04/18 01:37:46;;;;;;;20.45;6.63;;;;;;;8.86;62.51;102527.41;5051534;28;20048;-82
2021/04/18 01:40:15;;;;;;;21.77;7.50;;;;;;;8.85;63.24;102525.66;5044166;28;20104;-84
2021/04/18 01:42:43;;;;;;;21.30;7.65;;;;;;;8.85;63.14;102523.00;5042610;28;20041;-83
2021/04/18 01:45:12;;;;;;;22.58;7.47;;;;;;;8.83;62.85;102522.09;5048023;28;20021;-83
2021/04/18 01:47:39;;;;;;;19.63;7.88;;;;;;;8.80;63.03;102519.38;5050110;28;20436;-83
2021/04/18 01:50:08;;;;;;;16.17;7.63;;;;;;;8.78;63.65;102515.84;5050209;28;20076;-83
2021/04/18 01:52:35;;;;;;;18.40;7.35;;;;;;;8.80;63.16;102522.03;5049847;28;20053;-83
2021/04/18 01:55:03;;;;;;;20.67;7.88;;;;;;;8.81;62.93;102516.78;5050024;28;20076;-81
2021/04/18 01:57:30;;;;;;;14.10;6.18;;;;;;;8.82;63.12;102512.38;5052793;28;20025;-83
2021/04/18 01:59:56;;;;;;;20.58;7.93;;;;;;;8.84;63.31;102510.66;5050758;28;20439;-80
2021/04/18 02:02:23;;;;;;;24.38;8.38;;;;;;;8.82;63.38;102509.72;5038975;28;20030;-82
2021/04/18 02:04:52;;;;;;;15.77;7.78;;;;;;;8.82;63.13;102518.56;5045695;28;20484;-83
2021/04/18 02:07:18;;;;;;;19.60;8.15;;;;;;;8.82;63.22;102517.66;5048102;28;20082;-83
2021/04/18 02:09:45;;;;;;;23.25;9.20;;;;;;;8.79;62.97;102513.22;5050761;28;20025;-82
2021/04/18 02:12:12;;;;;;;25.45;10.18;;;;;;;8.79;62.78;102512.34;5022605;28;20136;-83
2021/04/18 02:14:38;;;;;;;18.58;8.18;;;;;;;8.77;62.75;102509.66;5048881;28;20029;-81
2021/04/18 02:17:05;;;;;;;18.85;8.43;;;;;;;8.78;62.62;102507.91;5045397;28;20021;-84
2021/04/18 02:19:33;;;;;;;25.48;9.48;;;;;;;8.72;63.65;102509.63;5047259;28;20108;-82
2021/04/18 02:22:00;;;;;;;16.88;7.57;;;;;;;8.75;63.40;102514.06;5049147;28;20112;-83
2021/04/18 02:24:30;;;;;;;18.75;8.13;;;;;;;8.76;63.27;102507.00;5038335;28;20503;-83
2021/04/18 02:26:57;;;;;;;30.55;9.07;;;;;;;8.67;63.56;102508.66;5041903;28;20021;-83
2021/04/18 02:29:24;;;;;;;24.15;9.10;;;;;;;8.69;63.29;102504.25;5049538;28;20021;-85
2021/04/18 02:31:51;;;;;;;16.48;8.68;;;;;;;8.63;63.67;102506.81;5047261;28;20036;-79
2021/04/18 02:34:18;;;;;;;18.00;8.75;;;;;;;8.67;63.55;102505.13;5045692;28;20441;-82
2021/04/18 02:36:44;;;;;;;19.52;8.23;;;;;;;8.64;63.47;102513.88;5051188;28;20029;-82
2021/04/18 02:39:11;;;;;;;22.23;9.00;;;;;;;8.65;63.64;102510.38;5049880;28;20063;-83
2021/04/18 02:41:38;;;;;;;26.02;10.45;;;;;;;8.64;63.51;102511.25;5026234;28;20063;-82
2021/04/18 02:44:05;;;;;;;20.80;9.38;;;;;;;8.65;63.15;102514.75;5051586;28;20044;-79
2021/04/18 02:46:32;;;;;;;26.17;9.48;;;;;;;8.63;63.14;102512.09;5045199;28;20037;-84
2021/04/18 02:49:02;;;;;;;22.17;11.02;;;;;;;8.62;63.13;102507.69;5021289;28;20021;-79
2021/04/18 02:51:30;;;;;;;24.10;10.75;;;;;;;8.58;63.49;102511.16;5044797;28;20024;-82
2021/04/18 02:53:59;;;;;;;35.88;10.10;;;;;;;8.60;63.91;102506.78;5044018;28;20033;-79
2021/04/18 02:56:27;;;;;;;30.02;11.00;;;;;;;8.59;63.69;102510.28;5044918;28;20021;-83
2021/04/18 02:58:54;;;;;;;20.75;9.77;;;;;;;8.58;63.82;102503.22;5051352;28;20036;-82
2021/04/18 03:01:21;;;;;;;23.17;9.38;;;;;;;8.57;64.08;102505.00;5050050;28;20037;-83
2021/04/18 03:03:48;;;;;;;18.85;10.80;;;;;;;8.53;63.61;102500.50;5048185;28;20017;-81
2021/04/18 03:06:15;;;;;;;25.25;10.80;;;;;;;8.54;63.90;102502.28;5048763;28;20108;-82
2021/04/18 03:08:42;;;;;;;29.13;10.18;;;;;;;8.53;63.98;102505.78;5043820;28;20064;-84
2021/04/18 03:11:09;;;;;;;22.02;9.10;;;;;;;8.55;63.60;102505.84;5051011;28;20491;-83
2021/04/18 03:13:36;;;;;;;23.85;9.90;;;;;;;8.57;63.70;102501.44;5051257;28;20118;-84
2021/04/18 03:16:03;;;;;;;23.42;10.57;;;;;;;8.55;63.72;102505.84;5051723;28;20029;-85
2021/04/18 03:18:30;;;;;;;25.95;9.80;;;;;;;8.58;63.55;102497.94;5047757;28;20039;-83
2021/04/18 03:20:56;;;;;;;32.15;10.55;;;;;;;8.60;64.04;102500.59;5049137;28;20040;-83
2021/04/18 03:23:23;;;;;;;24.50;10.60;;;;;;;8.63;63.82;102501.53;5024825;28;20404;-81
2021/04/18 03:25:50;;;;;;;22.95;9.95;;;;;;;8.66;63.92;102506.88;5044571;28;20022;-84
2021/04/18 03:28:17;;;;;;;27.63;11.75;;;;;;;8.71;64.45;102504.28;5050272;28;20040;-83
2021/04/18 03:30:43;;;;;;;25.40;10.55;;;;;;;8.78;64.39;102500.00;5043988;28;20040;-84
2021/04/18 03:33:10;;;;;;;22.63;9.32;;;;;;;8.82;64.43;102494.78;5048700;28;20060;-84
2021/04/18 03:35:37;;;;;;;31.48;11.32;;;;;;;8.86;64.63;102487.75;5050880;28;20028;-84
2021/04/18 03:38:03;;;;;;;29.35;10.65;;;;;;;8.89;64.53;102487.81;5048568;28;20021;-83
2021/04/18 03:40:30;;;;;;;22.00;10.55;;;;;;;8.92;63.78;102487.84;5048870;28;20525;-84
2021/04/18 03:42:57;;;;;;;19.83;10.48;;;;;;;8.93;63.80;102492.25;5047525;28;20025;-83
2021/04/18 03:45:25;;;;;;;32.53;12.70;;;;;;;8.96;64.28;102484.38;5047615;28;20036;-84
2021/04/18 03:47:51;;;;;;;21.50;10.07;;;;;;;8.99;63.71;102489.69;5047042;28;20058;-83
2021/04/18 03:50:18;;;;;;;25.27;11.18;;;;;;;9.03;64.35;102487.97;5050820;28;20025;-84
2021/04/18 03:52:47;;;;;;;25.48;10.50;;;;;;;9.07;64.13;102487.16;5045131;28;20176;-84
2021/04/18 03:55:14;;;;;;;22.20;10.43;;;;;;;9.12;63.71;102489.84;5046156;28;20032;-84
2021/04/18 03:57:41;;;;;;;21.27;10.63;;;;;;;9.17;64.33;102488.16;5046239;28;20036;-84
2021/04/18 04:00:08;;;;;;;22.45;10.43;;;;;;;9.21;63.72;102479.41;5047341;28;20549;-83
2021/04/18 04:02:38;;;;;;;18.83;9.27;;;;;;;9.23;64.21;102478.56;5049364;28;20075;-84
2021/04/18 04:05:04;;;;;;;28.88;11.27;;;;;;;9.27;64.06;102487.41;5047444;28;20388;-85
2021/04/18 04:07:31;;;;;;;20.95;10.23;;;;;;;9.30;63.72;102481.28;5047048;28;20486;-85
2021/04/18 04:09:59;;;;;;;19.38;9.93;;;;;;;9.29;63.88;102480.38;5049062;28;20112;-84
2021/04/18 04:12:28;;;;;;;26.77;10.15;;;;;;;9.29;63.68;102480.38;5048777;28;20036;-84
2021/04/18 04:14:55;;;;;;;21.30;10.02;;;;;;;9.29;63.79;102472.44;5047265;28;20021;-84
2021/04/18 04:17:22;;;;;;;25.77;10.80;;;;;;;9.26;63.21;102477.69;5048537;28;20025;-85
2021/04/18 04:19:49;;;;;;;15.70;9.23;;;;;;;9.23;62.58;102472.34;5050481;28;20025;-85
2021/04/18 04:22:15;;;;;;;21.30;10.07;;;;;;;9.17;63.20;102482.88;5048814;28;20116;-84
2021/04/18 04:24:42;;;;;;;27.70;10.77;;;;;;;9.12;62.59;102484.56;5048025;28;20380;-85
2021/04/18 04:27:09;;;;;;;22.95;10.10;;;;;;;9.07;63.28;102482.75;5048696;28;20025;-84
2021/04/18 04:29:35;;;;;;;18.83;10.95;;;;;;;9.07;63.01;102485.41;5028764;28;20511;-82
2021/04/18 04:32:02;;;;;;;20.85;10.95;;;;;;;9.07;63.57;102487.16;5046024;28;20034;-83
2021/04/18 04:34:28;;;;;;;20.90;9.30;;;;;;;9.07;63.66;102495.97;5036105;28;20454;-84
2021/04/18 04:36:55;;;;;;;16.38;8.77;;;;;;;9.10;63.15;102496.88;5028269;28;20377;-85
2021/04/18 04:39:22;;;;;;;17.52;9.93;;;;;;;9.11;63.06;102498.66;5048815;28;20095;-84
2021/04/18 04:41:48;;;;;;;24.35;10.15;;;;;;;9.14;63.67;102501.34;5049606;28;20112;-83
2021/04/18 04:44:17;;;;;;;20.08;9.07;;;;;;;9.14;63.64;102493.41;5049082;28;20435;-84
2021/04/18 04:46:45;;;;;;;21.98;9.63;;;;;;;9.18;63.68;102497.88;5046968;28;20387;-83
2021/04/18 04:49:12;;;;;;;15.27;9.80;;;;;;;9.16;63.16;102494.31;5047789;28;20025;-84
2021/04/18 04:51:39;;;;;;;20.95;9.35;;;;;;;9.18;63.42;102495.22;5047366;28;20025;-84
2021/04/18 04:54:06;;;;;;;16.00;8.85;;;;;;;9.18;63.06;102487.28;5046242;28;20032;-84
2021/04/18 04:56:32;;;;;;;17.00;9.65;;;;;;;9.18;62.71;102500.50;5038485;28;20045;-84
2021/04/18 04:58:59;;;;;;;27.20;10.10;;;;;;;9.15;62.45;102496.06;5015674;28;20068;-84
2021/04/18 05:01:26;;;;;;;19.33;9.95;;;;;;;9.13;62.28;102499.56;5044069;28;20127;-83
2021/04/18 05:03:52;;;;;;;20.13;9.48;;;;;;;9.11;62.69;102498.66;5037909;28;20120;-84
2021/04/18 05:06:19;;;;;;;16.23;8.20;;;;;;;9.05;62.30;102499.47;5047945;28;20117;-83
2021/04/18 05:08:48;;;;;;;18.95;10.52;;;;;;;9.04;62.70;102488.00;5048383;28;20048;-84
2021/04/18 05:11:14;;;;;;;22.15;9.52;;;;;;;9.01;62.16;102497.63;5035970;28;20021;-84
2021/04/18 05:13:41;;;;;;;19.38;8.98;;;;;;;8.98;62.04;102493.19;5049707;28;20078;-85
2021/04/18 05:16:07;;;;;;;15.00;8.70;;;;;;;8.96;62.71;102501.97;5050944;28;20103;-83
2021/04/18 05:18:33;;;;;;;13.82;8.82;;;;;;;8.92;62.82;102501.06;5044275;28;20021;-84
2021/04/18 05:21:00;;;;;;;16.05;8.88;;;;;;;8.91;62.24;102504.59;5046770;28;20070;-84
2021/04/18 05:23:27;;;;;;;16.63;8.18;;;;;;;8.91;62.39;102504.59;5047640;28;20471;-83
2021/04/18 05:25:54;;;;;;;15.85;9.30;;;;;;;8.91;62.15;102512.53;5051075;28;20119;-84
2021/04/18 05:28:20;;;;;;;22.90;10.40;;;;;;;8.91;62.52;102515.16;5053740;28;20100;-84
2021/04/18 05:30:48;;;;;;;15.85;8.27;;;;;;;8.93;62.43;102521.34;5037795;28;20382;-84
2021/04/18 05:33:14;;;;;;;19.25;9.60;;;;;;;8.95;62.63;102522.25;5043496;28;20033;-84
2021/04/18 05:35:41;;;;;;;17.50;9.82;;;;;;;8.98;63.00;102524.06;5044212;28;20167;-84
2021/04/18 05:38:07;;;;;;;18.75;8.95;;;;;;;9.03;62.93;102517.06;5049040;28;20025;-83
2021/04/18 05:40:33;;;;;;;18.73;10.05;;;;;;;9.12;63.08;102521.59;5049861;28;20506;-84
2021/04/18 05:43:00;;;;;;;16.38;8.80;;;;;;;9.19;63.00;102523.44;5046867;28;20072;-85
2021/04/18 05:45:27;;;;;;;14.98;9.52;;;;;;;9.28;62.94;102523.56;5045753;28;20025;-83
2021/04/18 05:47:53;;;;;;;12.43;9.13;;;;;;;9.36;63.29;102527.19;5040835;28;20052;-82
2021/04/18 05:50:20;;;;;;;21.17;9.57;;;;;;;9.46;62.54;102516.69;5046658;28;20062;-82
2021/04/18 05:52:49;;;;;;;18.70;10.93;;;;;;;9.54;62.63;102517.69;5046978;28;20025;-83
2021/04/18 05:55:16;;;;;;;14.18;8.25;;;;;;;9.58;62.74;102522.13;5049459;28;20430;-83
2021/04/18 05:57:42;;;;;;;13.75;8.77;;;;;;;9.62;62.30;102516.03;5052279;28;20100;-83
2021/04/18 06:00:09;;;;;;;14.20;8.43;;;;;;;9.66;62.56;102520.47;5044486;28;20037;-82
2021/04/18 06:02:36;;;;;;;10.93;7.22;;;;;;;9.68;62.21;102524.03;5047834;28;20365;-82
2021/04/18 06:05:02;;;;;;;13.07;7.97;;;;;;;9.70;62.18;102516.97;5039891;28;20477;-82
2021/04/18 06:07:29;;;;;;;14.05;8.43;;;;;;;9.70;62.47;102522.28;5031451;28;20033;-81
2021/04/18 06:09:55;;;;;;;17.17;8.98;;;;;;;9.71;62.44;102510.81;5048996;28;20032;-83
2021/04/18 06:12:22;;;;;;;13.23;9.35;;;;;;;9.69;62.36;102515.22;5050258;28;20074;-82
2021/04/18 06:14:48;;;;;;;12.48;9.25;;;;;;;9.71;62.47;102516.09;5044609;28;20033;-82
2021/04/18 06:17:15;;;;;;;11.98;8.65;;;;;;;9.72;62.41;102519.66;5048802;28;20047;-83
2021/04/18 06:19:41;;;;;;;13.60;8.85;;;;;;;9.75;62.04;102518.81;5027830;28;20502;-83
2021/04/18 06:22:08;;;;;;;16.92;9.80;;;;;;;9.79;62.45;102517.97;5042904;28;20037;-80
2021/04/18 06:24:34;;;;;;;15.88;9.95;;;;;;;9.83;62.13;102517.09;5041157;28;20479;-83
2021/04/18 06:27:00;;;;;;;18.63;12.55;;;;;;;9.86;62.21;102511.84;5041791;28;20514;-81
2021/04/18 06:29:27;;;;;;;20.67;11.63;;;;;;;9.87;62.33;102513.63;5046817;28;20021;-82
2021/04/18 06:31:53;;;;;;;20.65;11.25;;;;;;;9.92;62.17;102511.91;5044618;28;20029;-81
2021/04/18 06:34:22;;;;;;;16.80;11.73;;;;;;;9.96;62.42;102519.00;5028604;28;20383;-82
2021/04/18 06:36:50;;;;;;;18.90;11.73;;;;;;;10.01;62.24;102513.75;5047637;28;20029;-83
2021/04/18 06:39:19;;;;;;;20.85;11.70;;;;;;;10.11;62.16;102512.09;5047524;28;20035;-82
2021/04/18 06:41:56;;;;;;;21.10;11.68;;;;;;;10.23;62.38;102509.53;5047452;28;20155;-83
2021/04/18 06:44:22;;;;;;;22.33;11.15;;;;;;;10.27;62.01;102507.78;5047836;28;20025;-82
2021/04/18 06:46:49;;;;;;;20.75;9.35;;;;;;;10.34;62.07;102510.50;5048359;28;20025;-83
2021/04/18 06:49:16;;;;;;;20.80;10.15;;;;;;;10.41;61.91;102510.59;5048950;28;20029;-82
2021/04/18 06:51:42;;;;;;;20.02;9.57;;;;;;;10.52;61.96;102509.78;5049116;28;20092;-82
2021/04/18 06:54:10;;;;;;;17.70;8.65;;;;;;;10.60;61.82;102516.91;5050744;28;20028;-83
2021/04/18 06:56:37;;;;;;;21.60;9.75;;;;;;;10.71;61.67;102514.34;5045705;28;20109;-84
2021/04/18 06:59:04;;;;;;;19.58;10.48;;;;;;;10.82;61.63;102515.28;5048227;28;20075;-83
2021/04/18 07:01:31;;;;;;;20.52;9.95;;;;;;;10.90;61.48;102516.19;5045142;28;20041;-84
2021/04/18 07:04:19;;;;;;;17.17;8.93;;;;;;;11.10;60.97;102518.06;5048217;28;20029;-84
2021/04/18 07:06:49;;;;;;;16.52;8.30;;;;;;;11.10;60.87;102518.06;5047519;28;20383;-82
2021/04/18 07:09:19;;;;;;;16.48;9.23;;;;;;;11.15;60.74;102513.66;5046311;28;20376;-84
2021/04/18 07:14:39;;;;;;;21.20;8.88;;;;;;;11.31;60.45;102515.53;5114665;27;20852;-84
2021/04/18 07:17:12;;;;;;;17.88;10.68;;;;;;;11.45;60.15;102514.66;5105068;28;20031;-83
2021/04/18 07:19:41;;;;;;;19.90;8.52;;;;;;;11.54;60.14;102509.41;5104621;28;20077;-83
2021/04/18 07:22:08;;;;;;;20.48;9.50;;;;;;;11.62;59.87;102506.75;5104932;28;20028;-82
2021/04/18 07:27:52;;;;;;;17.00;9.88;;;;;;;11.78;58.71;102508.56;5111373;27;20379;-82
2021/04/18 07:30:21;;;;;;;19.80;10.38;;;;;;;11.56;58.72;102515.56;5104692;28;20474;-82
2021/04/18 07:33:06;;;;;;;20.20;10.88;;;;;;;11.59;58.32;102518.25;5103210;28;20032;-83
2021/04/18 07:35:36;;;;;;;20.27;11.02;;;;;;;11.52;57.90;102519.13;5065219;28;20033;-83
2021/04/18 07:38:29;;;;;;;15.90;11.32;;;;;;;11.65;57.87;102501.44;5079805;28;20067;-82
2021/04/18 07:41:14;;;;;;;17.70;8.40;;;;;;;11.60;57.87;102498.78;5079365;28;20383;-82
2021/04/18 07:43:44;;;;;;;14.05;8.80;;;;;;;11.67;57.92;102499.69;5083158;28;20140;-82
2021/04/18 07:46:11;;;;;;;23.88;9.70;;;;;;;11.64;57.98;102503.22;5078949;28;20028;-84
2021/04/18 07:48:38;;;;;;;17.50;8.95;;;;;;;11.73;57.32;102507.66;5083130;28;20021;-84
2021/04/18 07:51:05;;;;;;;15.63;9.05;;;;;;;11.73;57.32;102517.41;5080966;28;20024;-84
2021/04/18 07:53:32;;;;;;;14.35;8.57;;;;;;;11.74;57.42;102508.53;5078274;28;20055;-82
2021/04/18 07:55:59;;;;;;;19.00;8.98;;;;;;;11.84;57.20;102504.13;5078910;28;20040;-83
2021/04/18 07:58:25;;;;;;;18.52;8.88;;;;;;;11.94;56.80;102497.97;5081387;28;20028;-85
2021/04/18 08:00:52;;;;;;;27.95;10.73;;;;;;;12.05;57.03;102504.19;5075998;28;20035;-87
2021/04/18 08:03:19;;;;;;;20.52;10.30;;;;;;;12.19;56.65;102503.31;5083427;28;20029;-88
2021/04/18 08:05:46;;;;;;;13.85;7.93;;;;;;;12.34;56.02;102505.09;5076716;28;20082;-87
2021/04/18 08:08:15;;;;;;;16.45;8.13;;;;;;;12.47;56.33;102501.50;5075549;28;20028;-86
2021/04/18 08:10:49;;;;;;;15.15;9.60;;;;;;;12.64;55.80;102500.63;5084531;28;20023;-87
2021/04/18 08:13:26;;;;;;;14.80;8.93;;;;;;;12.66;54.85;102509.47;5084123;28;20077;-86
2021/04/18 08:18:45;;;;;;;21.25;10.88;;;;;;;12.55;55.66;102496.22;5048393;28;20420;-84
2021/04/18 08:30:03;;;;;;;19.13;10.63;;;;;;;12.78;54.14;102499.69;5101786;27;20372;-83
2021/04/18 08:32:47;;;;;;;17.75;9.60;;;;;;;12.85;54.18;102491.69;5094704;28;20028;-85
2021/04/18 08:35:16;;;;;;;14.02;8.70;;;;;;;12.83;54.63;102491.69;5075569;28;20057;-85
2021/04/18 08:37:43;;;;;;;19.65;10.88;;;;;;;12.71;53.57;102486.41;5073053;28;20032;-86
2021/04/18 08:40:10;;;;;;;17.77;9.27;;;;;;;12.79;54.00;102488.16;5080169;28;20029;-86
2021/04/18 08:42:37;;;;;;;14.43;10.85;;;;;;;12.86;53.54;102496.09;5072920;28;20040;-90
2021/04/18 08:45:05;;;;;;;19.77;10.82;;;;;;;12.90;53.21;102498.75;5073246;28;20032;-83
2021/04/18 08:47:37;;;;;;;18.35;11.35;;;;;;;12.95;52.86;102502.28;5074962;28;20032;-84
2021/04/18 08:52:46;;;;;;;19.17;10.52;;;;;;;12.88;53.50;102500.53;5069466;28;20996;-86
2021/04/18 08:55:17;;;;;;;20.13;11.15;;;;;;;13.04;53.45;102495.19;5043922;28;20079;-84
2021/04/18 08:57:43;;;;;;;17.50;9.65;;;;;;;13.06;53.52;102507.59;5051143;28;20049;-84
2021/04/18 09:00:13;;;;;;;19.38;9.27;;;;;;;13.13;53.09;102503.09;5035891;28;20152;-82
2021/04/18 09:02:39;;;;;;;14.05;8.63;;;;;;;13.21;52.65;102503.97;5034360;28;20034;-84
2021/04/18 09:05:11;;;;;;;18.65;9.68;;;;;;;13.31;52.88;102498.59;5023998;23;20042;-82
2021/04/18 09:07:43;;;;;;;12.57;8.50;;;;;;;13.33;51.98;102507.47;5006226;28;20034;-80
2021/04/18 09:10:12;;;;;;;15.43;8.73;;;;;;;13.41;52.78;102503.03;5000342;28;20473;-81
2021/04/18 09:12:38;;;;;;;15.00;8.50;;;;;;;13.46;52.59;102497.66;5009243;28;20069;-81
2021/04/18 09:15:06;;;;;;;16.42;9.10;;;;;;;13.59;52.28;102504.69;4990169;28;20026;-80
2021/04/18 09:17:36;;;;;;;17.70;8.73;;;;;;;13.64;51.43;102497.56;4990523;28;20037;-81
2021/04/18 09:20:06;;;;;;;16.92;8.35;;;;;;;13.73;51.49;102492.19;4990233;28;20058;-80
2021/04/18 09:22:36;;;;;;;12.65;7.60;;;;;;;13.83;51.33;102497.44;4984464;28;20051;-83
2021/04/18 09:25:07;;;;;;;18.75;8.70;;;;;;;13.95;51.67;102497.34;4991546;28;20393;-89
2021/04/18 09:27:38;;;;;;;13.70;8.32;;;;;;;14.01;51.63;102488.44;4990628;28;20038;-89
2021/04/18 09:30:09;;;;;;;15.90;8.02;;;;;;;14.13;51.35;102490.09;4989538;28;20034;-87
2021/04/18 09:32:41;;;;;;;14.63;8.20;;;;;;;14.21;50.80;102494.47;4987829;28;20039;-90
2021/04/18 09:35:09;;;;;;;14.98;7.55;;;;;;;14.26;50.53;102486.44;4990692;28;20367;-89
2021/04/18 09:37:38;;;;;;;17.17;8.20;;;;;;;14.34;50.61;102478.34;4990200;28;20033;-88
2021/04/18 09:40:09;;;;;;;10.52;7.50;;;;;;;14.41;49.31;102474.72;4990182;28;20117;-89
2021/04/18 09:42:39;;;;;;;13.23;7.30;;;;;;;14.51;49.71;102479.06;4990004;28;20044;-88
2021/04/18 09:45:11;;;;;;;14.18;6.95;;;;;;;14.60;49.81;102477.22;4990177;28;20031;-89
2021/04/18 09:47:38;;;;;;;16.42;8.50;;;;;;;14.70;49.57;102478.91;4990642;28;20077;-89
2021/04/18 09:50:14;;;;;;;17.95;8.98;;;;;;;14.81;49.12;102477.00;4990737;28;20030;-89
2021/04/18 09:52:41;;;;;;;11.52;7.60;;;;;;;14.88;49.03;102492.03;4989873;28;20060;-88
2021/04/18 09:55:29;;;;;;;16.63;8.15;;;;;;;15.08;48.05;102480.25;4990219;28;20084;-92
2021/04/18 09:58:00;;;;;;;11.95;6.82;;;;;;;15.06;48.63;102484.72;4987530;28;20031;-91
2021/04/18 10:03:13;;;;;;;12.20;7.88;;;;;;;15.19;48.39;102481.00;5065796;27;20860;-90
2021/04/18 10:08:31;;;;;;;10.82;7.40;;;;;;;15.33;48.22;102478.13;5073816;27;20390;-89
2021/04/18 10:11:17;;;;;;;14.07;7.85;;;;;;;15.42;47.23;102471.78;5066557;28;20021;-92
2021/04/18 10:19:18;;;;;;;12.93;6.55;;;;;;;15.56;46.90;102468.03;5081159;28;20374;-90
2021/04/18 10:22:04;;;;;;;11.23;6.15;;;;;;;15.65;46.99;102467.88;5079575;28;20037;-90
2021/04/18 10:27:16;;;;;;;9.93;5.72;;;;;;;15.86;45.78;102472.03;5086075;27;20956;-89
2021/04/18 10:29:44;;;;;;;12.75;6.35;;;;;;;15.92;45.04;102465.72;5069080;28;20025;-90
2021/04/18 10:32:10;;;;;;;10.85;6.75;;;;;;;15.96;45.32;102462.97;5061811;28;20044;-91
2021/04/18 10:34:37;;;;;;;14.32;9.65;;;;;;;16.08;45.33;102461.00;5050707;28;20036;-90
2021/04/18 10:37:05;;;;;;;12.00;7.47;;;;;;;16.12;45.09;102462.69;5055498;28;20087;-79
2021/04/18 10:39:33;;;;;;;10.70;6.75;;;;;;;16.17;44.65;102456.38;5046508;28;20035;-80
2021/04/18 10:41:59;;;;;;;13.07;7.07;;;;;;;16.18;44.66;102457.25;5044917;28;20190;-81
2021/04/18 10:44:27;;;;;;;12.43;6.30;;;;;;;16.24;44.44;102462.50;5047282;28;20384;-80
2021/04/18 10:46:57;;;;;;;14.93;6.63;;;;;;;16.28;43.85;102457.97;5047585;28;20029;-81
2021/04/18 10:49:25;;;;;;;10.75;6.45;;;;;;;16.32;43.62;102454.31;5047128;28;20029;-81
2021/04/18 10:51:51;;;;;;;11.02;5.72;;;;;;;16.32;42.91;102451.66;5048813;28;20432;-81
2021/04/18 10:54:18;;;;;;;9.90;5.82;;;;;;;16.50;43.12;102453.97;5049250;28;20420;-80
2021/04/18 10:56:46;;;;;;;9.80;5.97;;;;;;;16.62;42.81;102457.31;5047189;28;20106;-80
2021/04/18 10:59:12;;;;;;;8.88;6.80;;;;;;;16.74;42.29;102450.84;5048457;28;20052;-79
2021/04/18 11:01:39;;;;;;;11.27;6.22;;;;;;;16.79;42.12;102447.16;5048972;28;20512;-79
2021/04/18 11:04:06;;;;;;;14.52;6.70;;;;;;;16.86;42.23;102449.72;5049043;28;20053;-81
2021/04/18 11:06:32;;;;;;;13.30;7.03;;;;;;;16.86;42.31;102434.53;5048830;28;20035;-80
2021/04/18 11:08:59;;;;;;;11.90;6.60;;;;;;;16.93;42.05;102440.69;5048619;28;20381;-77
2021/04/18 11:11:25;;;;;;;14.80;7.10;;;;;;;16.96;41.50;102435.28;5048220;28;20043;-81
2021/04/18 11:13:52;;;;;;;9.35;6.05;;;;;;;17.01;40.77;102441.41;5047120;28;20029;-79
2021/04/18 11:16:19;;;;;;;10.00;5.93;;;;;;;17.08;40.22;102434.09;5048671;28;20469;-78
2021/04/18 11:18:46;;;;;;;11.02;6.00;;;;;;;17.12;39.99;102436.69;5048648;28;20083;-79
2021/04/18 11:21:12;;;;;;;9.70;6.40;;;;;;;17.11;40.51;102434.94;5045919;28;20021;-80
2021/04/18 11:23:40;;;;;;;9.95;7.15;;;;;;;17.18;40.75;102434.78;5048730;28;20024;-79
2021/04/18 11:26:06;;;;;;;11.30;5.63;;;;;;;17.36;40.76;102423.66;5048686;28;20107;-80
2021/04/18 11:28:33;;;;;;;11.20;6.60;;;;;;;17.31;40.98;102417.53;5048746;28;20465;-80
2021/04/18 11:31:04;;;;;;;11.45;7.07;;;;;;;17.49;40.98;102424.25;5048739;28;20053;-95
2021/04/18 11:33:31;;;;;;;10.32;6.25;;;;;;;17.56;41.00;102419.63;5028101;28;20750;-92
2021/04/18 11:36:00;;;;;;;11.25;6.13;;;;;;;17.68;40.74;102429.16;5037963;28;20041;-94
2021/04/18 11:38:26;;;;;;;10.07;6.20;;;;;;;17.71;40.77;102421.06;5022559;28;20036;-94
2021/04/18 11:40:52;;;;;;;9.07;5.90;;;;;;;17.75;40.50;102420.91;5031602;28;20125;-92
2021/04/18 11:43:19;;;;;;;10.73;6.57;;;;;;;17.78;40.55;102419.97;5032340;28;20025;-92
2021/04/18 11:45:46;;;;;;;10.75;5.85;;;;;;;17.87;40.60;102424.22;5034792;28;20067;-95
2021/04/18 11:48:12;;;;;;;10.43;5.63;;;;;;;17.92;40.10;102417.81;5034847;28;20029;-94
2021/04/18 11:50:39;;;;;;;11.35;6.65;;;;;;;18.04;39.50;102424.69;5032704;28;20030;-90
2021/04/18 11:53:12;;;;;;;11.73;6.18;;;;;;;18.15;39.13;102420.84;5039491;28;20029;-96
2021/04/18 11:55:59;;;;;;;10.25;5.85;;;;;;;18.26;39.05;102421.44;5035132;28;20060;-96
2021/04/18 11:58:25;;;;;;;9.10;5.70;;;;;;;18.20;38.54;102424.28;5039174;28;20045;-95